Time;durP1;ratioP1;P1;durP2;ratioP2;P2;SDS_P1;SDS_P2;PMS_P1;PMS_P2;Temp;Humidity;BMP_temperature;BMP_pressure;BME280_temperature;BME280_humidity;BME280_pressure;Samples;Min_cycle;Max_cycle;Signal;HPM_P1;HPM_P2
2023/03/01 00:01:30;;;;;;;24.38;13.32;;;;;;;4.39;62.95;103357.88;5003989;28;20068;-45
2023/03/01 00:03:56;;;;;;;24.58;13.35;;;;;;;4.42;62.57;103354.66;5004652;28;20400;-44
2023/03/01 00:06:22;;;;;;;24.20;13.38;;;;;;;4.37;62.39;103358.56;5001848;28;20026;-43
2023/03/01 00:08:49;;;;;;;23.20;13.30;;;;;;;4.29;62.78;103357.94;5034836;23;20072;-40
2023/03/01 00:11:26;;;;;;;25.50;13.57;;;;;;;4.19;63.43;103350.28;5025938;28;20479;-41
2023/03/01 00:13:55;;;;;;;23.42;13.40;;;;;;;4.16;62.98;103352.59;5029075;28;20037;-40
2023/03/01 00:16:30;;;;;;;24.48;13.63;;;;;;;4.11;62.94;103353.03;5002273;28;20482;-40
2023/03/01 00:18:56;;;;;;;25.02;14.13;;;;;;;4.06;63.05;103351.00;5019256;28;20412;-42
2023/03/01 00:21:22;;;;;;;25.27;14.32;;;;;;;3.99;63.76;103335.81;5022769;28;20125;-39
2023/03/01 00:23:49;;;;;;;25.08;13.40;;;;;;;3.98;63.73;103341.72;5022625;28;20046;-40
2023/03/01 00:26:16;;;;;;;27.10;14.50;;;;;;;4.03;64.70;103339.50;5001337;28;20202;-40
2023/03/01 00:28:42;;;;;;;25.38;13.90;;;;;;;4.06;64.73;103339.75;5022475;28;20045;-42
2023/03/01 00:31:12;;;;;;;25.17;13.88;;;;;;;4.07;64.34;103339.00;5019350;28;20083;-41
2023/03/01 00:33:38;;;;;;;23.55;13.65;;;;;;;4.09;64.63;103335.72;5023178;28;20034;-40
2023/03/01 00:36:03;;;;;;;24.95;14.75;;;;;;;4.08;64.96;103338.22;5019311;28;20048;-39
2023/03/01 00:38:29;;;;;;;24.85;13.75;;;;;;;4.09;64.42;103338.31;5022423;28;20044;-40
2023/03/01 00:40:54;;;;;;;23.20;13.30;;;;;;;4.08;64.77;103333.06;5022340;28;20030;-41
2023/03/01 00:43:20;;;;;;;25.52;14.15;;;;;;;4.03;64.45;103335.25;5018870;28;20053;-40
2023/03/01 00:45:45;;;;;;;24.25;13.43;;;;;;;3.97;64.28;103328.69;5021202;28;20075;-40
2023/03/01 00:48:11;;;;;;;27.42;13.75;;;;;;;3.93;64.17;103329.25;5018892;28;20034;-40
2023/03/01 00:50:36;;;;;;;24.58;13.68;;;;;;;3.92;64.17;103332.59;5022941;28;20084;-40
2023/03/01 00:53:02;;;;;;;25.90;14.75;;;;;;;3.87;64.46;103328.75;5018997;28;20396;-40
2023/03/01 00:55:27;;;;;;;26.02;13.98;;;;;;;3.84;63.97;103336.28;5004813;28;20033;-41
2023/03/01 00:57:52;;;;;;;26.65;14.27;;;;;;;3.80;63.77;103332.53;5022069;28;20049;-40
2023/03/01 01:00:19;;;;;;;25.70;14.25;;;;;;;3.75;64.48;103330.38;5018494;28;20430;-40
2023/03/01 01:02:45;;;;;;;27.40;14.18;;;;;;;3.71;63.77;103331.81;5022324;28;20044;-40
2023/03/01 01:05:10;;;;;;;25.85;13.98;;;;;;;3.62;64.37;103333.66;5018513;28;20033;-40
2023/03/01 01:07:36;;;;;;;25.98;13.75;;;;;;;3.56;64.49;103328.00;5022401;28;20087;-41
2023/03/01 01:10:02;;;;;;;24.02;13.90;;;;;;;3.53;64.48;103323.50;5018338;28;20134;-41
2023/03/01 01:12:28;;;;;;;27.00;14.38;;;;;;;3.58;64.01;103322.19;5021554;28;20028;-40
2023/03/01 01:14:53;;;;;;;26.33;13.73;;;;;;;3.60;64.64;103330.94;5021844;28;20034;-42
2023/03/01 01:17:19;;;;;;;28.60;15.07;;;;;;;3.61;64.42;103329.25;5018155;28;20052;-40
2023/03/01 01:19:44;;;;;;;30.83;15.60;;;;;;;3.60;65.79;103324.88;5022087;28;20112;-40
2023/03/01 01:22:10;;;;;;;26.20;14.45;;;;;;;3.62;65.43;103329.38;5018127;28;20048;-40
2023/03/01 01:24:35;;;;;;;25.25;14.30;;;;;;;3.59;65.04;103325.69;5022299;28;20030;-40
2023/03/01 01:27:00;;;;;;;26.60;14.70;;;;;;;3.56;65.94;103322.84;5018264;28;20101;-45
2023/03/01 01:29:26;;;;;;;29.90;15.85;;;;;;;3.54;65.83;103312.38;5022012;28;20033;-40
2023/03/01 01:31:51;;;;;;;29.90;15.20;;;;;;;3.56;65.38;103310.84;5021459;28;20037;-40
2023/03/01 01:34:19;;;;;;;27.98;15.23;;;;;;;3.64;65.23;103301.16;5017958;28;20061;-41
2023/03/01 01:36:48;;;;;;;28.52;15.05;;;;;;;3.71;66.05;103307.69;5021599;28;20045;-41
2023/03/01 01:39:14;;;;;;;30.27;15.40;;;;;;;3.71;65.75;103299.97;5017501;28;20076;-39
2023/03/01 01:41:42;;;;;;;30.42;15.65;;;;;;;3.60;65.78;103288.75;5020953;28;20395;-40
2023/03/01 01:44:16;;;;;;;31.20;16.23;;;;;;;3.59;66.85;103287.88;5017902;28;20021;-42
2023/03/01 01:46:47;;;;;;;35.03;17.30;;;;;;;3.68;66.71;103290.28;5021236;28;20504;-40
2023/03/01 01:49:34;;;;;;;30.98;15.65;;;;;;;3.68;66.17;103278.28;5017386;28;20056;-40
2023/03/01 01:52:08;;;;;;;30.92;15.93;;;;;;;3.64;65.99;103273.66;5017191;28;20048;-40
2023/03/01 01:54:43;;;;;;;33.15;16.27;;;;;;;3.40;66.47;103274.28;5021036;28;20022;-39
2023/03/01 01:57:18;;;;;;;34.53;17.30;;;;;;;3.43;66.78;103268.47;5016673;28;20061;-43
2023/03/01 01:59:46;;;;;;;33.15;15.70;;;;;;;3.46;65.98;103272.22;5021377;28;20037;-39
2023/03/01 02:02:13;;;;;;;32.70;16.15;;;;;;;3.44;66.09;103272.84;5017389;28;20224;-40
2023/03/01 02:04:39;;;;;;;32.38;15.88;;;;;;;3.35;65.85;103267.88;5021603;28;20083;-42
2023/03/01 02:07:13;;;;;;;30.15;15.45;;;;;;;3.30;66.17;103264.00;4999481;28;20450;-41
2023/03/01 02:09:40;;;;;;;30.40;15.95;;;;;;;3.30;65.58;103270.81;5020724;28;20041;-38
2023/03/01 02:12:06;;;;;;;36.42;15.80;;;;;;;3.26;65.34;103269.69;5017321;28;20119;-40
2023/03/01 02:14:32;;;;;;;29.15;15.68;;;;;;;3.24;65.90;103276.38;5020948;28;20475;-39
2023/03/01 02:16:57;;;;;;;30.92;15.98;;;;;;;3.21;65.44;103265.84;5020845;28;20074;-40
2023/03/01 02:19:59;;;;;;;32.45;16.23;;;;;;;3.14;65.76;103254.13;5017325;28;20030;-40
2023/03/01 02:22:31;;;;;;;30.73;16.42;;;;;;;3.13;66.04;103257.50;5016804;28;20045;-40
2023/03/01 02:25:17;;;;;;;34.58;16.48;;;;;;;3.07;65.70;103254.41;5017355;28;20040;-40
2023/03/01 02:27:58;;;;;;;31.67;15.45;;;;;;;3.03;65.67;103254.06;5002682;28;20495;-41
2023/03/01 02:30:25;;;;;;;33.75;16.30;;;;;;;3.03;66.27;103247.22;5016543;28;20112;-40
2023/03/01 02:32:54;;;;;;;32.90;16.70;;;;;;;3.07;65.54;103257.00;5020780;28;20041;-41
2023/03/01 02:35:20;;;;;;;33.92;16.25;;;;;;;3.05;66.32;103258.53;5016992;28;20033;-43
2023/03/01 02:37:46;;;;;;;37.85;17.77;;;;;;;2.99;65.33;103265.75;5020025;28;20041;-40
2023/03/01 02:40:17;;;;;;;35.35;16.95;;;;;;;3.01;65.72;103253.91;5016773;28;20049;-40
2023/03/01 02:42:50;;;;;;;36.47;17.40;;;;;;;3.06;66.46;103252.59;5020181;28;20132;-40
2023/03/01 02:45:16;;;;;;;36.78;17.60;;;;;;;3.10;66.13;103251.19;4998872;28;20041;-40
2023/03/01 02:47:41;;;;;;;36.75;16.83;;;;;;;3.19;66.15;103246.78;5020166;28;20037;-41
2023/03/01 02:50:45;;;;;;;35.47;16.85;;;;;;;3.20;66.72;103241.75;5016892;28;20584;-40
2023/03/01 02:53:21;;;;;;;34.30;17.67;;;;;;;3.17;66.73;103241.47;5003473;28;20056;-40
2023/03/01 02:55:47;;;;;;;39.65;18.48;;;;;;;3.27;67.16;103240.56;5022442;28;20568;-40
2023/03/01 02:58:13;;;;;;;39.65;18.27;;;;;;;3.32;65.84;103238.34;5021364;28;20132;-41
2023/03/01 03:00:46;;;;;;;35.40;17.83;;;;;;;3.32;65.86;103240.94;5024982;28;20160;-44
2023/03/01 03:03:16;;;;;;;36.95;17.58;;;;;;;3.27;65.58;103240.56;5018000;28;20084;-41
2023/03/01 03:05:42;;;;;;;31.83;16.90;;;;;;;3.18;66.40;103227.81;5020379;28;20044;-41
2023/03/01 03:08:08;;;;;;;33.47;17.20;;;;;;;3.13;66.16;103228.22;5016787;28;20423;-40
2023/03/01 03:10:37;;;;;;;38.88;17.05;;;;;;;3.06;66.28;103231.09;5024879;28;20120;-40
2023/03/01 03:13:13;;;;;;;30.88;16.83;;;;;;;2.93;65.88;103236.06;5021803;28;20030;-40
2023/03/01 03:15:40;;;;;;;35.20;17.95;;;;;;;2.89;66.22;103228.81;5025692;28;20041;-40
2023/03/01 03:18:08;;;;;;;36.45;17.40;;;;;;;2.88;66.37;103214.13;5021311;28;20049;-40
2023/03/01 03:20:34;;;;;;;39.47;17.88;;;;;;;2.90;66.66;103226.38;5021700;28;20041;-41
2023/03/01 03:22:59;;;;;;;32.70;16.92;;;;;;;2.88;66.59;103219.28;5016702;28;20037;-40
2023/03/01 03:25:27;;;;;;;37.33;17.70;;;;;;;2.91;66.11;103220.47;5002703;28;20044;-41
2023/03/01 03:27:56;;;;;;;36.28;17.42;;;;;;;2.89;66.02;103214.25;5020170;28;20056;-40
2023/03/01 03:30:24;;;;;;;35.83;17.90;;;;;;;2.82;66.20;103214.53;5016386;28;20558;-40
2023/03/01 03:32:53;;;;;;;37.83;17.85;;;;;;;2.77;66.24;103211.59;5002113;28;20042;-42
2023/03/01 03:35:33;;;;;;;38.50;18.02;;;;;;;2.78;66.66;103213.41;4998243;28;20036;-41
2023/03/01 03:38:03;;;;;;;36.78;17.10;;;;;;;2.80;66.46;103209.28;5015873;28;21188;-41
2023/03/01 03:40:31;;;;;;;37.00;18.15;;;;;;;2.79;66.27;103211.72;5018848;28;20520;-40
2023/03/01 03:42:57;;;;;;;35.65;17.23;;;;;;;2.78;66.31;103215.97;5016442;28;20222;-40
2023/03/01 03:45:22;;;;;;;36.03;17.75;;;;;;;2.78;66.68;103213.41;5019573;28;20034;-40
2023/03/01 03:47:48;;;;;;;36.72;18.10;;;;;;;2.78;66.43;103218.56;5019660;28;20064;-40
2023/03/01 03:50:15;;;;;;;36.35;18.00;;;;;;;2.83;67.12;103211.19;5016008;28;20034;-40
2023/03/01 03:52:41;;;;;;;42.35;19.85;;;;;;;2.89;68.12;103206.53;5019519;28;20037;-42
2023/03/01 03:55:10;;;;;;;49.28;20.83;;;;;;;3.04;68.56;103201.75;5016538;28;20025;-41
2023/03/01 03:57:40;;;;;;;52.90;20.95;;;;;;;3.20;68.72;103205.66;5019969;28;20060;-40
2023/03/01 04:00:12;;;;;;;46.65;20.65;;;;;;;3.30;69.01;103207.28;5016144;28;20042;-39
2023/03/01 04:02:41;;;;;;;53.05;22.00;;;;;;;3.36;68.65;103207.78;5019733;28;20041;-40
2023/03/01 04:05:08;;;;;;;50.55;21.58;;;;;;;3.38;67.78;103207.91;5016288;28;20040;-42
2023/03/01 04:07:38;;;;;;;47.58;21.45;;;;;;;3.37;67.93;103207.00;5019335;28;20068;-40
2023/03/01 04:10:06;;;;;;;51.90;20.48;;;;;;;3.38;67.94;103206.22;5015464;28;20400;-40
2023/03/01 04:12:33;;;;;;;48.08;21.13;;;;;;;3.39;67.86;103207.13;5001594;28;20025;-44
2023/03/01 04:14:59;;;;;;;43.47;20.02;;;;;;;3.39;68.01;103207.13;5015937;28;20523;-42
2023/03/01 04:17:25;;;;;;;46.85;20.30;;;;;;;3.45;67.80;103203.34;5019449;28;20045;-40
2023/03/01 04:19:50;;;;;;;46.20;20.27;;;;;;;3.51;68.61;103205.50;5021741;28;20034;-40
2023/03/01 04:22:18;;;;;;;46.80;19.65;;;;;;;3.55;68.77;103205.88;5001243;28;20589;-40
2023/03/01 04:24:43;;;;;;;53.78;20.08;;;;;;;3.58;68.28;103193.22;5023286;28;20042;-40
2023/03/01 04:27:09;;;;;;;48.50;19.65;;;;;;;3.64;68.84;103197.97;5019668;28;20102;-41
2023/03/01 04:29:34;;;;;;;70.40;20.48;;;;;;;3.67;68.71;103193.94;5023963;28;20040;-40
2023/03/01 04:32:00;;;;;;;55.38;21.95;;;;;;;3.59;68.32;103201.88;5019876;28;20041;-40
2023/03/01 04:34:26;;;;;;;56.22;21.65;;;;;;;3.48;68.89;103200.09;5023829;28;20029;-38
2023/03/01 04:36:52;;;;;;;51.53;20.63;;;;;;;3.55;68.84;103202.38;5025633;28;20055;-40
2023/03/01 04:39:18;;;;;;;48.50;19.45;;;;;;;3.59;68.70;103188.97;5005365;28;20045;-40
2023/03/01 04:41:43;;;;;;;43.90;20.35;;;;;;;3.65;69.11;103185.19;5028527;28;20037;-40
2023/03/01 04:44:09;;;;;;;51.78;19.40;;;;;;;3.79;68.64;103187.91;5008825;28;20036;-40
2023/03/01 04:46:35;;;;;;;37.97;19.48;;;;;;;3.83;68.62;103185.72;5028800;28;20095;-40
2023/03/01 04:49:02;;;;;;;77.45;19.38;;;;;;;3.77;68.71;103187.81;5020223;28;20092;-40
2023/03/01 04:51:27;;;;;;;46.88;19.38;;;;;;;3.78;68.69;103176.69;5022535;28;20124;-40
2023/03/01 04:53:53;;;;;;;59.80;17.77;;;;;;;3.80;68.56;103176.81;5022281;28;20037;-41
2023/03/01 04:56:18;;;;;;;83.15;19.08;;;;;;;3.77;68.49;103174.03;5000750;28;20087;-40
2023/03/01 04:58:44;;;;;;;36.03;17.90;;;;;;;3.78;68.43;103165.50;5021697;28;20107;-41
2023/03/01 05:01:15;;;;;;;93.55;19.65;;;;;;;3.74;68.76;103166.03;5017959;28;20034;-41
2023/03/01 05:03:42;;;;;;;63.72;18.58;;;;;;;3.70;68.16;103162.31;5022167;28;20038;-41
2023/03/01 05:06:07;;;;;;;72.57;19.02;;;;;;;3.65;68.14;103158.50;5018525;28;20037;-40
2023/03/01 05:08:34;;;;;;;46.13;18.83;;;;;;;3.58;67.99;103159.69;5021512;28;20069;-40
2023/03/01 05:10:59;;;;;;;33.78;17.55;;;;;;;3.53;68.44;103155.88;5017971;28;20037;-43
2023/03/01 05:13:25;;;;;;;53.13;19.38;;;;;;;3.52;68.00;103159.22;5022397;28;20052;-41
2023/03/01 05:16:01;;;;;;;36.65;17.80;;;;;;;3.47;68.46;103157.97;5004096;28;20048;-40
2023/03/01 05:18:30;;;;;;;67.63;19.58;;;;;;;3.44;68.23;103160.28;5018097;28;20045;-40
2023/03/01 05:21:00;;;;;;;45.83;18.80;;;;;;;3.39;68.40;103161.63;5020533;28;20083;-51
2023/03/01 05:23:26;;;;;;;53.47;19.55;;;;;;;3.25;68.96;103162.19;5020147;28;20037;-41
2023/03/01 05:25:52;;;;;;;39.28;19.70;;;;;;;3.28;68.97;103151.25;5021020;28;20037;-42
2023/03/01 05:28:18;;;;;;;49.72;20.40;;;;;;;3.23;68.75;103150.88;5018818;28;20395;-40
2023/03/01 05:30:43;;;;;;;36.80;19.40;;;;;;;3.25;68.43;103147.63;5020983;28;20038;-37
2023/03/01 05:33:15;;;;;;;42.65;19.52;;;;;;;3.19;68.06;103139.41;5019236;28;20037;-40
2023/03/01 05:35:42;;;;;;;36.45;18.90;;;;;;;3.18;67.65;103134.13;5022897;28;20029;-42
2023/03/01 05:38:08;;;;;;;40.92;19.63;;;;;;;3.08;67.59;103135.09;5019910;28;20033;-40
2023/03/01 05:40:34;;;;;;;35.33;18.08;;;;;;;3.10;66.71;103130.97;5025645;28;20372;-40
2023/03/01 05:42:59;;;;;;;40.50;19.17;;;;;;;2.91;67.43;103127.72;5019788;28;20081;-40
2023/03/01 05:45:26;;;;;;;83.70;19.50;;;;;;;2.40;69.27;103125.28;5022282;28;20136;-40
2023/03/01 05:47:54;;;;;;;54.72;18.08;;;;;;;2.36;69.48;103122.34;5022437;28;20072;-40
2023/03/01 05:50:29;;;;;;;41.55;17.42;;;;;;;2.58;68.60;103122.41;5000084;28;20036;-41
2023/03/01 05:53:16;;;;;;;31.70;17.00;;;;;;;2.66;67.38;103121.34;5021123;28;20041;-40
2023/03/01 05:55:42;;;;;;;29.92;16.20;;;;;;;2.68;67.07;103124.97;5017473;28;20527;-40
2023/03/01 05:58:13;;;;;;;34.58;16.92;;;;;;;2.63;67.11;103124.56;5000285;28;20564;-40
2023/03/01 06:00:39;;;;;;;46.92;16.15;;;;;;;1.95;68.42;103114.66;5021138;28;20128;-39
2023/03/01 06:03:04;;;;;;;91.35;17.27;;;;;;;2.07;68.92;103119.03;5018058;28;20112;-40
2023/03/01 06:05:30;;;;;;;42.20;16.80;;;;;;;2.15;68.74;103124.03;5020777;28;20121;-39
2023/03/01 06:07:59;;;;;;;57.40;16.88;;;;;;;2.22;68.54;103115.16;5039736;23;20084;-44
2023/03/01 06:10:24;;;;;;;79.22;17.45;;;;;;;2.09;69.28;103112.31;4981101;28;20033;-45
2023/03/01 06:12:49;;;;;;;61.05;18.02;;;;;;;2.09;68.26;103115.81;5002134;28;20034;-44
2023/03/01 06:15:16;;;;;;;80.43;17.60;;;;;;;2.03;68.97;103115.28;4998969;28;20050;-44
2023/03/01 06:17:45;;;;;;;46.25;17.25;;;;;;;2.04;69.09;103120.56;5002891;28;20041;-45
2023/03/01 06:20:18;;;;;;;53.35;17.13;;;;;;;2.16;68.66;103117.22;4999224;28;20034;-48
2023/03/01 06:22:44;;;;;;;35.33;16.70;;;;;;;2.29;67.89;103120.94;5006545;28;20045;-44
2023/03/01 06:25:12;;;;;;;33.75;16.63;;;;;;;2.39;67.35;103125.16;5007434;28;20089;-43
2023/03/01 06:27:37;;;;;;;118.57;19.38;;;;;;;2.18;68.38;103118.25;5010228;28;20045;-46
2023/03/01 06:30:03;;;;;;;31.60;16.55;;;;;;;2.22;68.56;103120.28;5000295;28;20034;-45
2023/03/01 06:32:30;;;;;;;47.42;16.30;;;;;;;2.31;67.78;103128.78;5002161;28;20034;-45
2023/03/01 06:34:55;;;;;;;34.65;16.48;;;;;;;2.24;67.87;103123.91;4985533;28;20041;-50
2023/03/01 06:37:20;;;;;;;34.72;17.63;;;;;;;2.22;68.06;103123.78;4982036;28;20435;-44
2023/03/01 06:39:46;;;;;;;36.53;17.85;;;;;;;2.23;67.59;103116.94;5004233;28;20049;-45
2023/03/01 06:42:11;;;;;;;40.85;18.17;;;;;;;2.22;68.61;103120.28;5003548;28;20034;-44
2023/03/01 06:44:37;;;;;;;41.38;18.50;;;;;;;2.28;68.08;103131.09;4990576;28;20469;-46
2023/03/01 06:47:03;;;;;;;32.60;17.75;;;;;;;2.34;68.70;103126.44;4999558;28;20092;-45
2023/03/01 06:49:29;;;;;;;40.47;19.13;;;;;;;2.35;68.63;103131.72;5003250;28;20066;-44
2023/03/01 06:51:54;;;;;;;34.25;18.13;;;;;;;2.39;68.57;103127.72;5007302;28;20030;-46
2023/03/01 06:54:22;;;;;;;33.72;17.33;;;;;;;2.45;68.81;103125.66;5003919;28;20106;-43
2023/03/01 06:56:47;;;;;;;40.75;17.67;;;;;;;2.36;68.10;103123.25;5005157;28;20038;-41
2023/03/01 06:59:13;;;;;;;32.08;17.23;;;;;;;2.45;68.26;103121.41;4999150;28;20056;-45
2023/03/01 07:01:39;;;;;;;30.58;17.23;;;;;;;2.52;68.71;103127.94;5002058;28;20041;-47
2023/03/01 07:04:04;;;;;;;35.75;17.65;;;;;;;2.61;68.77;103127.81;4979818;28;20042;-48
2023/03/01 07:06:30;;;;;;;35.50;18.60;;;;;;;2.49;68.46;103119.09;5002087;28;20559;-45
2023/03/01 07:08:55;;;;;;;35.85;18.10;;;;;;;2.71;68.96;103125.19;5001224;28;20083;-47
2023/03/01 07:11:20;;;;;;;32.35;17.52;;;;;;;3.25;68.86;103114.13;4999012;28;20042;-43
2023/03/01 07:13:46;;;;;;;32.35;18.77;;;;;;;3.93;68.89;103127.97;5002413;28;20403;-45
2023/03/01 07:16:11;;;;;;;34.97;18.63;;;;;;;4.30;67.19;103121.28;4998131;28;20053;-50
2023/03/01 07:18:36;;;;;;;35.55;19.27;;;;;;;3.96;65.04;103111.03;5002124;28;20034;-44
2023/03/01 07:21:07;;;;;;;33.58;18.42;;;;;;;3.82;65.84;103118.50;4997954;28;20045;-48
2023/03/01 07:23:32;;;;;;;35.25;18.65;;;;;;;3.85;66.03;103121.31;5001948;28;20087;-45
2023/03/01 07:25:58;;;;;;;31.30;17.90;;;;;;;3.85;66.42;103124.78;4998590;28;20038;-50
2023/03/01 07:28:24;;;;;;;36.67;19.85;;;;;;;3.78;67.11;103131.97;5001369;28;20034;-45
2023/03/01 07:30:49;;;;;;;36.83;19.70;;;;;;;3.87;66.91;103130.97;5001510;28;20439;-45
2023/03/01 07:33:14;;;;;;;36.88;19.88;;;;;;;3.99;66.24;103138.75;4998061;28;20033;-44
2023/03/01 07:35:40;;;;;;;36.50;19.88;;;;;;;4.00;66.79;103130.22;4983751;28;20034;-44
2023/03/01 07:38:05;;;;;;;35.42;19.25;;;;;;;3.98;66.56;103136.94;4998649;28;20030;-43
2023/03/01 07:40:31;;;;;;;39.25;20.15;;;;;;;4.02;67.36;103139.00;5001284;28;20124;-47
2023/03/01 07:42:57;;;;;;;36.67;18.88;;;;;;;4.12;66.62;103140.56;5000094;28;20037;-47
2023/03/01 07:45:23;;;;;;;37.72;19.40;;;;;;;4.13;67.13;103142.38;5000625;28;20037;-49
2023/03/01 07:47:50;;;;;;;36.30;19.92;;;;;;;4.20;66.91;103142.06;5002489;28;20038;-47
2023/03/01 07:50:15;;;;;;;42.85;21.38;;;;;;;4.21;67.34;103139.56;4980744;28;20022;-47
2023/03/01 07:52:41;;;;;;;33.58;18.83;;;;;;;4.26;67.48;103142.53;5002478;28;20428;-44
2023/03/01 07:55:06;;;;;;;39.63;20.52;;;;;;;4.43;67.71;103142.97;5002505;28;20508;-45
2023/03/01 07:57:32;;;;;;;40.20;20.52;;;;;;;4.48;67.17;103141.63;5007507;28;20049;-45
2023/03/01 07:59:57;;;;;;;37.03;20.42;;;;;;;4.58;67.20;103140.63;5003631;28;20038;-62
2023/03/01 08:02:22;;;;;;;38.10;21.33;;;;;;;4.63;67.36;103144.47;5007039;28;20041;-41
2023/03/01 08:04:48;;;;;;;41.58;21.88;;;;;;;4.63;66.76;103139.28;5007111;28;20033;-46
2023/03/01 08:07:13;;;;;;;39.63;21.67;;;;;;;4.53;66.99;103141.97;5002422;28;20025;-46
2023/03/01 08:09:38;;;;;;;43.20;23.08;;;;;;;4.58;67.24;103143.19;5006989;28;20049;-43
2023/03/01 08:12:05;;;;;;;43.25;22.45;;;;;;;4.81;66.95;103131.97;5003721;28;20034;-48
2023/03/01 08:14:34;;;;;;;40.10;21.95;;;;;;;5.03;66.87;103131.81;5007151;28;20542;-46
2023/03/01 08:17:00;;;;;;;40.42;22.05;;;;;;;5.21;66.20;103126.28;5004638;28;20041;-44
2023/03/01 08:19:25;;;;;;;38.80;21.80;;;;;;;5.19;65.91;103121.78;5000923;28;20034;-44
2023/03/01 08:21:50;;;;;;;39.95;22.52;;;;;;;5.34;66.17;103120.28;4987641;28;20033;-47
2023/03/01 08:24:16;;;;;;;38.00;21.48;;;;;;;5.48;66.21;103113.50;5001512;28;20133;-47
2023/03/01 08:26:41;;;;;;;40.13;22.23;;;;;;;5.30;66.41;103118.28;5003792;28;20025;-43
2023/03/01 08:29:06;;;;;;;36.13;21.17;;;;;;;5.59;66.02;103116.03;5001066;28;20038;-47
2023/03/01 08:31:38;;;;;;;35.13;20.67;;;;;;;5.59;65.43;103116.03;5004346;28;20448;-45
2023/03/01 08:34:09;;;;;;;33.75;19.05;;;;;;;5.73;65.19;103112.66;4983283;28;20038;-46
2023/03/01 08:36:38;;;;;;;34.28;19.75;;;;;;;5.61;64.74;103114.41;5004880;28;20057;-44
2023/03/01 08:39:05;;;;;;;32.40;18.80;;;;;;;5.84;65.00;103109.94;5000164;28;20030;-42
2023/03/01 08:41:30;;;;;;;29.98;18.55;;;;;;;6.02;64.18;103112.13;5004374;28;20042;-44
2023/03/01 08:43:58;;;;;;;33.58;18.17;;;;;;;6.17;64.16;103103.56;5002656;28;20037;-56
2023/03/01 08:46:28;;;;;;;30.10;17.90;;;;;;;6.33;63.90;103106.38;5003151;28;20030;-45
2023/03/01 08:48:54;;;;;;;31.45;17.85;;;;;;;6.41;63.82;103106.06;5003820;28;20045;-44
2023/03/01 08:51:21;;;;;;;31.85;18.67;;;;;;;6.59;62.93;103103.78;5000299;28;20419;-43
2023/03/01 08:53:47;;;;;;;32.78;17.85;;;;;;;6.32;62.10;103107.19;4986965;28;20104;-46
2023/03/01 08:56:13;;;;;;;31.35;17.88;;;;;;;6.15;64.15;103103.47;5000378;28;20109;-45
2023/03/01 08:58:39;;;;;;;27.83;16.85;;;;;;;6.36;62.99;103107.47;5004717;28;20045;-46
2023/03/01 09:01:13;;;;;;;28.33;16.77;;;;;;;6.58;61.84;103109.78;4999876;28;20503;-42
2023/03/01 09:03:38;;;;;;;24.17;15.20;;;;;;;6.17;59.94;103112.22;5005652;28;20096;-44
2023/03/01 09:06:07;;;;;;;28.40;16.00;;;;;;;6.77;58.75;103115.34;5002866;28;20030;-44
2023/03/01 09:08:35;;;;;;;27.02;16.15;;;;;;;7.05;60.20;103104.16;5008337;28;20500;-43
2023/03/01 09:11:05;;;;;;;25.80;15.25;;;;;;;7.24;59.79;103100.22;5003776;28;20451;-48
2023/03/01 09:13:31;;;;;;;28.33;15.40;;;;;;;6.89;57.71;103100.56;5008557;28;20038;-48
2023/03/01 09:15:58;;;;;;;26.83;14.10;;;;;;;6.71;56.65;103106.31;5004863;28;20068;-46
2023/03/01 09:18:23;;;;;;;28.08;14.18;;;;;;;7.19;56.52;103098.13;5006011;28;20460;-44
2023/03/01 09:20:49;;;;;;;24.38;14.50;;;;;;;7.38;55.87;103089.78;5005379;28;20270;-46
2023/03/01 09:23:14;;;;;;;22.65;13.65;;;;;;;7.43;55.95;103091.88;5001804;28;20110;-42
2023/03/01 09:25:39;;;;;;;25.60;13.95;;;;;;;7.22;55.30;103088.84;5004915;28;20037;-44
2023/03/01 09:28:05;;;;;;;23.63;13.77;;;;;;;7.42;55.21;103084.88;4999941;28;20118;-44
2023/03/01 09:30:30;;;;;;;23.67;13.88;;;;;;;7.72;54.23;103089.31;5003627;28;20117;-42
2023/03/01 09:32:58;;;;;;;26.38;14.98;;;;;;;7.71;53.55;103090.13;5003556;28;20038;-48
2023/03/01 09:35:23;;;;;;;23.75;13.95;;;;;;;7.64;53.16;103087.06;5000168;28;20034;-44
2023/03/01 09:37:49;;;;;;;22.67;13.40;;;;;;;7.89;54.50;103082.53;5003305;28;20403;-47
2023/03/01 09:40:19;;;;;;;24.35;14.10;;;;;;;8.07;53.28;103090.50;5000043;28;20404;-43
2023/03/01 09:42:53;;;;;;;23.92;14.18;;;;;;;7.53;52.29;103083.81;4986886;28;20527;-45
2023/03/01 09:45:27;;;;;;;24.58;14.13;;;;;;;7.81;53.96;103078.56;5001689;28;20052;-45
2023/03/01 09:47:54;;;;;;;23.33;13.95;;;;;;;7.84;52.34;103078.78;5005737;28;20078;-48
2023/03/01 09:50:21;;;;;;;24.30;14.02;;;;;;;8.13;52.47;103072.69;5003676;28;20410;-44
2023/03/01 09:52:59;;;;;;;21.90;13.48;;;;;;;8.21;51.72;103070.53;5002199;28;20120;-47
2023/03/01 09:55:30;;;;;;;21.33;12.43;;;;;;;8.06;51.59;103067.94;4999578;28;20030;-48
2023/03/01 09:58:16;;;;;;;20.60;12.32;;;;;;;8.26;51.40;103072.59;5000618;28;20037;-46
2023/03/01 10:00:48;;;;;;;20.13;12.05;;;;;;;8.52;51.22;103067.22;5000352;28;20026;-43
2023/03/01 10:03:20;;;;;;;21.13;12.43;;;;;;;8.52;50.95;103058.53;4999151;28;20172;-45
2023/03/01 10:05:46;;;;;;;22.92;12.50;;;;;;;8.49;50.17;103047.94;5001396;28;20061;-44
2023/03/01 10:08:35;;;;;;;21.25;12.73;;;;;;;8.24;50.36;103058.59;4996752;28;20528;-45
2023/03/01 10:11:02;;;;;;;18.48;10.63;;;;;;;8.49;48.21;103056.63;4997115;28;20088;-45
2023/03/01 10:13:48;;;;;;;16.20;9.80;;;;;;;8.43;47.31;103051.09;5001582;28;20034;-46
2023/03/01 10:16:49;;;;;;;16.40;9.52;;;;;;;8.29;47.57;103062.38;4998856;28;20041;-48
2023/03/01 10:19:23;;;;;;;17.20;9.00;;;;;;;8.22;46.71;103049.84;4999283;28;20061;-47
2023/03/01 10:21:51;;;;;;;15.70;8.93;;;;;;;8.08;46.90;103048.16;5003839;28;20030;-49
2023/03/01 10:24:21;;;;;;;15.80;8.57;;;;;;;8.50;46.21;103045.44;4999558;28;20432;-45
2023/03/01 10:27:17;;;;;;;13.80;8.32;;;;;;;8.77;44.84;103032.19;5005927;28;20038;-43
2023/03/01 10:29:59;;;;;;;14.95;8.60;;;;;;;8.59;44.65;103029.47;5002227;28;20049;-47
2023/03/01 10:32:24;;;;;;;16.20;8.98;;;;;;;9.11;44.25;103030.59;5002208;28;20247;-46
2023/03/01 10:34:50;;;;;;;14.95;8.90;;;;;;;8.89;44.18;103023.34;5005096;28;20037;-46
2023/03/01 10:37:19;;;;;;;14.77;8.75;;;;;;;8.58;43.74;103018.97;5000213;28;20112;-46
2023/03/01 10:40:08;;;;;;;14.45;8.57;;;;;;;8.91;44.67;103018.19;5005004;28;20033;-45
2023/03/01 10:42:47;;;;;;;15.27;9.00;;;;;;;9.08;45.34;103008.72;4998981;28;20126;-45
2023/03/01 10:45:33;;;;;;;18.60;10.25;;;;;;;8.79;45.38;103008.03;5001082;28;20048;-49
2023/03/01 10:48:19;;;;;;;15.35;8.85;;;;;;;8.75;44.26;103003.47;5001583;28;20052;-45
2023/03/01 10:50:50;;;;;;;15.82;9.35;;;;;;;8.84;44.78;103008.31;5004004;28;20026;-50
2023/03/01 10:53:40;;;;;;;15.88;8.68;;;;;;;8.64;43.70;103006.31;4999339;28;20037;-46
2023/03/01 10:56:15;;;;;;;15.27;8.85;;;;;;;8.95;43.92;103015.88;4998613;28;20022;-46
2023/03/01 10:58:59;;;;;;;16.75;8.85;;;;;;;8.84;42.26;103003.09;5001784;28;20115;-45
2023/03/01 11:01:34;;;;;;;15.77;8.73;;;;;;;8.94;42.67;103006.28;4997795;28;20141;-49
2023/03/01 11:04:05;;;;;;;13.75;7.90;;;;;;;9.03;42.88;103000.66;5000113;28;20034;-47
2023/03/01 11:06:30;;;;;;;15.95;9.10;;;;;;;8.94;42.35;102998.47;5001075;28;20129;-46
2023/03/01 11:08:56;;;;;;;15.68;9.05;;;;;;;8.71;42.71;102991.13;5002449;28;20582;-49
2023/03/01 11:11:33;;;;;;;17.15;9.00;;;;;;;8.85;42.48;102981.44;4998360;28;20037;-45
2023/03/01 11:14:25;;;;;;;17.48;9.07;;;;;;;9.12;43.52;102984.66;5002848;28;20029;-46
2023/03/01 11:17:17;;;;;;;18.50;9.52;;;;;;;9.39;43.58;102985.19;4981226;28;20041;-49
2023/03/01 11:19:42;;;;;;;19.15;11.15;;;;;;;9.14;43.66;102978.72;4999745;28;20077;-45
2023/03/01 11:22:14;;;;;;;17.25;10.52;;;;;;;9.44;44.63;102974.22;4999436;28;20144;-46
2023/03/01 11:24:46;;;;;;;19.08;11.05;;;;;;;9.55;44.53;102959.13;5002866;28;20034;-46